createdAt,value
2019-05-14T00:01:51.393Z,14.60
2019-05-14T00:04:18.904Z,14.50
2019-05-14T00:06:46.368Z,14.50
2019-05-14T00:09:13.613Z,14.60
2019-05-14T00:11:42.122Z,14.60
2019-05-14T00:14:11.636Z,14.50
2019-05-14T00:16:42.168Z,14.50
2019-05-14T00:19:11.012Z,14.50
2019-05-14T00:21:37.967Z,14.50
2019-05-14T00:24:05.521Z,14.60
2019-05-14T00:26:32.774Z,14.40
2019-05-14T00:29:01.678Z,14.30
2019-05-14T00:31:31.649Z,14.30
2019-05-14T00:33:58.415Z,14.50
2019-05-14T00:36:25.680Z,14.40
2019-05-14T00:38:53.325Z,14.30
2019-05-14T00:41:21.487Z,14.30
2019-05-14T00:43:51.586Z,14.30
2019-05-14T00:46:21.136Z,14.30
2019-05-14T00:48:48.527Z,14.30
2019-05-14T00:51:15.725Z,14.10
2019-05-14T00:53:43.595Z,13.90
2019-05-14T00:56:11.169Z,13.80
2019-05-14T00:58:38.505Z,13.80
2019-05-14T01:01:07.419Z,13.80
2019-05-14T01:06:03.264Z,13.80
2019-05-14T01:08:31.897Z,13.60
2019-05-14T01:11:01.528Z,13.60
2019-05-14T01:13:28.565Z,13.60
2019-05-14T01:15:55.917Z,13.70
2019-05-14T01:18:23.305Z,13.60
2019-05-14T01:20:51.888Z,13.50
2019-05-14T01:23:21.488Z,13.50
2019-05-14T01:25:51.443Z,13.70
2019-05-14T01:28:18.887Z,13.60
2019-05-14T01:30:46.182Z,13.30
2019-05-14T01:33:13.640Z,13.10
2019-05-14T01:35:42.016Z,12.70
2019-05-14T01:38:11.478Z,12.70
2019-05-14T01:40:39.030Z,12.80
2019-05-14T01:43:06.433Z,12.70
2019-05-14T01:45:33.701Z,12.80
2019-05-14T01:48:01.408Z,12.70
2019-05-14T01:50:28.798Z,12.60
2019-05-14T01:52:56.041Z,12.50
2019-05-14T01:55:23.202Z,12.40
2019-05-14T01:57:51.819Z,12.40
2019-05-14T02:00:22.018Z,12.50
2019-05-14T02:02:49.357Z,12.30
2019-05-14T02:05:16.711Z,12.30
2019-05-14T02:07:43.855Z,12.20
2019-05-14T02:10:11.927Z,12.20
2019-05-14T02:12:39.216Z,12.10
2019-05-14T02:15:06.941Z,12.00
2019-05-14T02:17:34.387Z,11.90
2019-05-14T02:20:02.209Z,11.90
2019-05-14T02:22:31.903Z,11.80
2019-05-14T02:24:58.872Z,11.60
2019-05-14T02:27:26.161Z,11.70
2019-05-14T02:29:53.417Z,11.50
2019-05-14T02:32:20.880Z,11.20
2019-05-14T02:34:50.035Z,11.20
2019-05-14T02:37:19.456Z,11.20
2019-05-14T02:39:49.895Z,11.00
2019-05-14T02:42:19.442Z,11.20
2019-05-14T02:44:54.949Z,11.20
2019-05-14T02:47:22.308Z,11.10
2019-05-14T02:49:50.294Z,11.00
2019-05-14T02:52:20.345Z,10.90
2019-05-14T02:54:49.517Z,10.80
2019-05-14T02:57:19.718Z,10.80
2019-05-14T02:59:45.721Z,10.70
2019-05-14T03:02:12.973Z,10.70
2019-05-14T03:04:40.319Z,10.60
2019-05-14T03:07:10.723Z,10.50
2019-05-14T03:12:24.301Z,10.40
2019-05-14T03:14:51.548Z,10.30
2019-05-14T03:17:19.921Z,10.00
2019-05-14T03:19:49.601Z,9.90
2019-05-14T03:22:27.161Z,9.90
2019-05-14T03:24:50.004Z,9.90
2019-05-14T03:27:19.139Z,10.10
2019-05-14T03:29:58.483Z,10.10
2019-05-14T03:32:24.738Z,10.10
2019-05-14T03:34:53.974Z,10.00
2019-05-14T03:37:23.639Z,10.10
2019-05-14T03:39:50.688Z,10.00
2019-05-14T03:42:19.289Z,10.00
2019-05-14T03:47:13.582Z,10.10
2019-05-14T03:49:40.799Z,10.10
2019-05-14T03:52:09.750Z,10.30
2019-05-14T03:54:40.251Z,11.00
2019-05-14T03:57:09.296Z,11.60
2019-05-14T03:59:35.573Z,12.40
2019-05-14T04:02:24.519Z,13.00
2019-05-14T04:04:51.869Z,13.90
2019-05-14T04:07:21.579Z,14.60
2019-05-14T04:09:50.006Z,15.20
2019-05-14T04:12:19.181Z,16.10
2019-05-14T04:14:51.419Z,16.50
2019-05-14T04:17:32.175Z,17.40
2019-05-14T04:19:54.039Z,17.80
2019-05-14T04:22:23.103Z,18.10
2019-05-14T04:24:54.033Z,18.80
2019-05-14T04:27:24.570Z,19.00
2019-05-14T04:29:53.043Z,19.30
2019-05-14T04:32:20.600Z,19.60
2019-05-14T04:34:50.028Z,20.20
2019-05-14T04:37:20.134Z,20.70
2019-05-14T04:39:50.022Z,21.30
2019-05-14T04:42:15.751Z,21.10
2019-05-14T04:44:43.413Z,21.60
2019-05-14T04:47:27.700Z,22.30
2019-05-14T04:49:40.332Z,22.70
2019-05-14T04:52:09.974Z,23.20
2019-05-14T04:54:39.449Z,23.50
2019-05-14T04:57:05.814Z,23.80
2019-05-14T04:59:33.033Z,24.20
2019-05-14T05:02:00.381Z,24.50
2019-05-14T05:04:50.563Z,24.70
2019-05-14T05:07:19.110Z,25.40
2019-05-14T05:09:49.883Z,25.30
2019-05-14T05:12:19.443Z,24.80
2019-05-14T05:14:44.938Z,25.80
2019-05-14T05:17:12.572Z,25.80
2019-05-14T05:19:45.104Z,25.70
2019-05-14T05:22:09.148Z,25.80
2019-05-14T05:24:38.105Z,26.60
2019-05-14T05:27:05.307Z,27.00
2019-05-14T05:29:32.748Z,27.60
2019-05-14T05:32:00.097Z,26.60
2019-05-14T05:34:28.306Z,27.00
2019-05-14T05:36:55.725Z,26.50
2019-05-14T05:39:22.931Z,26.90
2019-05-14T05:41:50.197Z,27.20
2019-05-14T05:44:18.807Z,26.90
2019-05-14T05:46:46.270Z,27.00
2019-05-14T05:49:13.621Z,26.60
2019-05-14T05:51:40.768Z,25.00
2019-05-14T05:54:09.199Z,24.50
2019-05-14T05:59:03.950Z,22.50
2019-05-14T06:01:42.152Z,21.90
2019-05-14T06:06:28.454Z,20.20
2019-05-14T06:08:58.193Z,19.50
2019-05-14T06:11:24.921Z,19.10
2019-05-14T06:13:52.166Z,18.70
2019-05-14T06:16:19.630Z,18.50
2019-05-14T06:18:48.406Z,18.10
2019-05-14T06:21:18.669Z,18.00
2019-05-14T06:23:45.072Z,17.70
2019-05-14T06:26:12.304Z,17.90
2019-05-14T06:28:40.974Z,17.60
2019-05-14T06:31:09.982Z,17.20
2019-05-14T06:33:39.390Z,17.00
2019-05-14T06:36:08.592Z,16.90
2019-05-14T06:38:35.743Z,16.80
2019-05-14T06:41:02.882Z,16.60
2019-05-14T06:43:30.243Z,16.30
2019-05-14T06:45:58.512Z,16.20
2019-05-14T06:48:33.404Z,16.00
2019-05-14T06:50:55.272Z,16.00
2019-05-14T06:53:22.583Z,16.10
2019-05-14T06:55:49.826Z,16.20
2019-05-14T06:58:20.322Z,16.00
2019-05-14T07:00:46.462Z,16.00
2019-05-14T07:03:13.670Z,15.80
2019-05-14T07:05:41.031Z,16.00
2019-05-14T07:08:09.081Z,16.30
2019-05-14T07:10:39.283Z,16.60
2019-05-14T07:13:08.406Z,16.30
2019-05-14T07:15:34.952Z,16.40
2019-05-14T07:18:02.302Z,16.00
2019-05-14T07:20:29.407Z,15.80
2019-05-14T07:22:58.660Z,16.00
2019-05-14T07:25:25.902Z,16.10
2019-05-14T07:27:53.054Z,15.60
2019-05-14T07:30:20.360Z,15.90
2019-05-14T07:32:48.446Z,16.00
2019-05-14T07:35:18.304Z,16.20
2019-05-14T07:37:45.222Z,16.00
2019-05-14T07:40:13.622Z,16.30
2019-05-14T07:42:41.168Z,15.90
2019-05-14T07:45:09.881Z,15.90
2019-05-14T07:47:38.859Z,15.60
2019-05-14T07:50:08.576Z,15.60
2019-05-14T07:52:36.211Z,15.00
2019-05-14T07:55:09.105Z,15.20
2019-05-14T07:57:36.036Z,14.70
2019-05-14T08:00:10.308Z,15.20
2019-05-14T08:02:38.082Z,15.20
2019-05-14T08:05:08.772Z,15.50
2019-05-14T08:07:38.630Z,15.50
2019-05-14T08:10:09.066Z,15.70
2019-05-14T08:12:39.078Z,15.70
2019-05-14T08:15:17.462Z,15.50
2019-05-14T08:17:36.089Z,15.30
2019-05-14T08:20:09.064Z,15.40
2019-05-14T08:22:38.331Z,15.40
2019-05-14T08:25:08.518Z,15.40
2019-05-14T08:27:38.359Z,15.10
2019-05-14T08:30:09.387Z,15.10
2019-05-14T08:32:38.857Z,15.10
2019-05-14T08:35:06.388Z,15.10
2019-05-14T08:37:35.243Z,15.50
2019-05-14T08:40:09.502Z,15.40
2019-05-14T08:42:38.309Z,15.20
2019-05-14T08:45:12.320Z,14.70
2019-05-14T08:47:39.122Z,15.10
2019-05-14T08:50:09.100Z,15.20
2019-05-14T08:52:35.761Z,14.70
2019-05-14T08:55:10.155Z,14.70
2019-05-14T08:57:34.295Z,15.10
2019-05-14T09:00:02.152Z,15.20
2019-05-14T09:02:29.646Z,15.70
2019-05-14T09:05:02.842Z,16.30
2019-05-14T09:07:25.935Z,16.40
2019-05-14T09:09:52.980Z,16.20
2019-05-14T09:12:20.705Z,15.90
2019-05-14T09:14:48.473Z,16.30
2019-05-14T09:17:18.330Z,16.00
2019-05-14T09:19:58.789Z,15.50
2019-05-14T09:22:14.255Z,15.90
2019-05-14T09:24:41.405Z,16.20
2019-05-14T09:27:08.756Z,16.20
2019-05-14T09:29:36.115Z,16.00
2019-05-14T09:32:03.355Z,16.20
2019-05-14T09:34:30.725Z,16.90
2019-05-14T09:36:59.431Z,17.10
2019-05-14T09:39:29.072Z,16.70
2019-05-14T09:41:58.027Z,16.10
2019-05-14T09:44:25.145Z,16.20
2019-05-14T09:46:52.511Z,16.50
2019-05-14T09:49:20.054Z,16.60
2019-05-14T09:51:48.873Z,16.60
2019-05-14T09:54:16.195Z,16.50
2019-05-14T09:56:43.740Z,16.50
2019-05-14T09:59:11.130Z,16.30
2019-05-14T10:01:38.469Z,16.30
2019-05-14T10:04:05.847Z,16.00
2019-05-14T10:06:33.171Z,15.80
2019-05-14T10:09:00.419Z,15.80
2019-05-14T10:11:28.858Z,15.60
2019-05-14T10:13:56.459Z,15.40
2019-05-14T10:16:25.875Z,15.80
2019-05-14T10:18:53.210Z,15.80
2019-05-14T10:21:20.490Z,15.90
2019-05-14T10:23:47.544Z,15.30
2019-05-14T10:26:14.990Z,15.10
2019-05-14T10:28:43.561Z,15.40
2019-05-14T10:31:13.363Z,16.00
2019-05-14T10:33:40.237Z,16.50
2019-05-14T10:36:09.274Z,16.80
2019-05-14T10:38:38.763Z,17.00
2019-05-14T10:41:05.806Z,17.10
2019-05-14T10:43:33.106Z,17.40
2019-05-14T10:46:00.860Z,17.50
2019-05-14T10:48:29.169Z,17.40
2019-05-14T10:51:02.886Z,17.40
2019-05-14T10:53:28.666Z,17.60
2019-05-14T10:55:55.526Z,17.40
2019-05-14T10:58:22.736Z,17.60
2019-05-14T11:00:49.692Z,17.50
2019-05-14T11:03:18.644Z,17.80
2019-05-14T11:05:48.000Z,17.50
2019-05-14T11:08:15.127Z,17.40
2019-05-14T11:10:42.804Z,16.70
2019-05-14T11:13:10.239Z,17.30
2019-05-14T11:15:39.544Z,16.80
2019-05-14T11:18:08.448Z,16.60
2019-05-14T11:20:35.279Z,15.80
2019-05-14T11:23:03.090Z,15.80
2019-05-14T11:25:30.484Z,16.10
2019-05-14T11:27:58.650Z,16.60
2019-05-14T11:30:28.770Z,16.80
2019-05-14T11:32:58.473Z,17.20
2019-05-14T11:35:28.614Z,17.70
2019-05-14T11:37:54.830Z,17.90
2019-05-14T11:40:22.594Z,18.10
2019-05-14T11:42:49.692Z,18.40
2019-05-14T11:45:18.024Z,17.90
2019-05-14T11:47:45.379Z,18.90
2019-05-14T11:50:13.358Z,19.10
2019-05-14T11:52:40.445Z,19.00
2019-05-14T11:55:09.037Z,19.10
2019-05-14T11:57:36.275Z,18.90
2019-05-14T12:00:08.554Z,18.30
2019-05-14T12:02:38.279Z,18.10
2019-05-14T12:05:08.680Z,17.50
2019-05-14T12:07:35.575Z,15.80
2019-05-14T12:10:05.845Z,15.10
2019-05-14T12:12:33.144Z,14.70
2019-05-14T12:15:00.390Z,14.70
2019-05-14T12:17:29.475Z,14.40
2019-05-14T12:19:59.285Z,14.60
2019-05-14T12:22:28.420Z,15.20
2019-05-14T12:24:55.218Z,15.00
2019-05-14T12:27:22.384Z,15.40
2019-05-14T12:29:50.095Z,15.80
2019-05-14T12:32:18.933Z,16.40
2019-05-14T12:34:48.914Z,16.30
2019-05-14T12:37:18.387Z,16.60
2019-05-14T12:39:44.732Z,16.60
2019-05-14T12:42:11.893Z,16.80
2019-05-14T12:44:40.838Z,17.00
2019-05-14T12:47:09.456Z,16.80
2019-05-14T12:49:38.749Z,16.80
2019-05-14T12:52:19.116Z,17.10
2019-05-14T12:54:34.995Z,16.70
2019-05-14T12:57:02.166Z,17.10
2019-05-14T12:59:29.219Z,17.20
2019-05-14T13:01:58.682Z,17.50
2019-05-14T13:04:25.335Z,17.50
2019-05-14T13:06:52.757Z,18.40
2019-05-14T13:09:21.730Z,18.30
2019-05-14T13:11:49.086Z,18.30
2019-05-14T13:14:16.387Z,17.80
2019-05-14T13:16:43.639Z,17.80
2019-05-14T13:19:10.953Z,16.80
2019-05-14T13:21:38.897Z,17.00
2019-05-14T13:24:08.772Z,16.70
2019-05-14T13:26:35.493Z,16.40
2019-05-14T13:29:02.659Z,16.10
2019-05-14T13:31:29.663Z,15.80
2019-05-14T13:33:59.219Z,15.60
2019-05-14T13:36:28.823Z,15.70
2019-05-14T13:38:55.230Z,15.80
2019-05-14T13:41:22.372Z,16.40
2019-05-14T13:43:50.657Z,16.90
2019-05-14T13:46:18.978Z,16.90
2019-05-14T13:48:49.586Z,17.10
2019-05-14T13:51:15.152Z,17.30
2019-05-14T13:53:42.345Z,17.10
2019-05-14T13:56:09.665Z,17.00
2019-05-14T13:58:37.091Z,17.00
2019-05-14T14:03:32.045Z,17.40
2019-05-14T14:05:59.733Z,17.60
2019-05-14T14:08:29.220Z,17.60
2019-05-14T14:11:01.964Z,17.90
2019-05-14T14:13:25.756Z,17.80
2019-05-14T14:15:53.393Z,17.50
2019-05-14T14:18:21.240Z,16.80
2019-05-14T14:20:49.067Z,16.60
2019-05-14T14:23:25.419Z,14.90
2019-05-14T14:25:45.635Z,14.20
2019-05-14T14:28:12.811Z,14.30
2019-05-14T14:30:40.221Z,14.20
2019-05-14T14:33:07.303Z,14.30
2019-05-14T14:35:35.348Z,14.30
2019-05-14T14:38:02.728Z,14.20
2019-05-14T14:40:30.378Z,14.20
2019-05-14T14:42:59.365Z,13.70
2019-05-14T14:45:29.196Z,13.70
2019-05-14T14:47:56.449Z,13.60
2019-05-14T14:50:23.925Z,13.70
2019-05-14T14:52:51.358Z,13.80
2019-05-14T14:55:24.759Z,13.90
2019-05-14T14:57:54.267Z,13.50
2019-05-14T15:00:21.140Z,13.40
2019-05-14T15:02:49.574Z,13.60
2019-05-14T15:05:19.954Z,13.70
2019-05-14T15:07:49.671Z,14.20
2019-05-14T15:10:16.249Z,14.20
2019-05-14T15:12:44.011Z,14.20
2019-05-14T15:15:11.949Z,14.30
2019-05-14T15:17:39.658Z,14.30
2019-05-14T15:20:09.883Z,14.50
2019-05-14T15:22:36.011Z,14.50
2019-05-14T15:25:04.640Z,14.40
2019-05-14T15:27:31.750Z,14.70
2019-05-14T15:29:59.472Z,14.80
2019-05-14T15:32:30.032Z,14.40
2019-05-14T15:37:23.371Z,15.20
2019-05-14T15:39:50.936Z,15.10
2019-05-14T15:42:19.261Z,15.30
2019-05-14T15:44:54.808Z,15.20
2019-05-14T15:47:16.062Z,15.20
2019-05-14T15:49:43.159Z,15.30
2019-05-14T15:52:10.677Z,15.50
2019-05-14T15:54:46.304Z,15.60
2019-05-14T15:57:08.986Z,15.70
2019-05-14T15:59:36.000Z,15.70
2019-05-14T16:02:03.299Z,15.50
2019-05-14T16:04:30.551Z,16.00
2019-05-14T16:06:58.628Z,15.70
2019-05-14T16:09:28.697Z,15.90
2019-05-14T16:11:54.898Z,16.40
2019-05-14T16:14:21.993Z,16.60
2019-05-14T16:16:49.077Z,16.80
2019-05-14T16:19:18.871Z,16.70
2019-05-14T16:21:45.147Z,16.80
2019-05-14T16:24:12.166Z,16.70
2019-05-14T16:26:39.290Z,16.70
2019-05-14T16:29:08.937Z,16.60
2019-05-14T16:31:41.965Z,16.50
2019-05-14T16:34:04.681Z,16.40
2019-05-14T16:36:31.621Z,16.00
2019-05-14T16:38:58.650Z,16.00
2019-05-14T16:41:25.843Z,15.70
2019-05-14T16:43:52.859Z,15.20
2019-05-14T16:46:20.198Z,14.20
2019-05-14T16:48:48.857Z,13.80
2019-05-14T16:51:19.116Z,13.70
2019-05-14T16:53:45.258Z,13.50
2019-05-14T16:56:12.341Z,13.80
2019-05-14T16:58:39.593Z,13.90
2019-05-14T17:01:09.236Z,13.90
2019-05-14T17:03:35.900Z,13.90
2019-05-14T17:06:03.269Z,14.20
2019-05-14T17:08:30.555Z,14.10
2019-05-14T17:10:59.050Z,14.20
2019-05-14T17:13:28.441Z,14.10
2019-05-14T17:15:55.429Z,14.10
2019-05-14T17:18:22.671Z,14.20
2019-05-14T17:20:50.042Z,14.30
2019-05-14T17:23:19.306Z,14.50
2019-05-14T17:25:48.567Z,14.30
2019-05-14T17:30:44.160Z,14.10
2019-05-14T17:33:11.519Z,14.30
2019-05-14T17:35:39.108Z,14.20
2019-05-14T17:38:09.073Z,14.30
2019-05-14T17:40:35.734Z,14.30
2019-05-14T17:43:03.184Z,14.30
2019-05-14T17:45:30.330Z,14.30
2019-05-14T17:47:58.509Z,14.00
2019-05-14T17:50:29.041Z,14.20
2019-05-14T17:52:56.790Z,14.10
2019-05-14T17:55:24.180Z,14.20
2019-05-14T17:57:57.823Z,14.40
2019-05-14T18:00:20.248Z,14.40
2019-05-14T18:02:48.544Z,14.10
2019-05-14T18:05:18.631Z,14.00
2019-05-14T18:07:44.965Z,14.10
2019-05-14T18:10:12.172Z,14.10
2019-05-14T18:12:39.970Z,14.00
2019-05-14T18:15:08.593Z,14.00
2019-05-14T18:17:35.826Z,13.90
2019-05-14T18:20:08.159Z,14.10
2019-05-14T18:22:34.972Z,13.80
2019-05-14T18:25:03.145Z,13.40
2019-05-14T18:27:30.290Z,13.30
2019-05-14T18:29:59.260Z,13.60
2019-05-14T18:32:26.846Z,13.80
2019-05-14T18:34:54.396Z,13.70
2019-05-14T18:37:21.647Z,13.80
2019-05-14T18:39:48.594Z,13.60
2019-05-14T18:42:16.074Z,13.60
2019-05-14T18:44:43.294Z,13.50
2019-05-14T18:47:10.881Z,13.60
2019-05-14T18:49:38.225Z,13.60
2019-05-14T18:52:05.586Z,13.50
2019-05-14T18:54:32.936Z,13.30
2019-05-14T18:57:00.267Z,13.50
2019-05-14T18:59:30.568Z,13.60
2019-05-14T19:01:59.233Z,13.70
2019-05-14T19:04:27.945Z,13.60
2019-05-14T19:06:55.123Z,13.70
2019-05-14T19:09:22.267Z,13.60
2019-05-14T19:11:49.459Z,13.40
2019-05-14T19:14:18.721Z,13.70
2019-05-14T19:16:48.854Z,13.60
2019-05-14T19:19:15.091Z,13.60
2019-05-14T19:21:42.304Z,13.60
2019-05-14T19:24:09.463Z,13.80
2019-05-14T19:26:37.716Z,13.70
2019-05-14T19:29:08.517Z,13.50
2019-05-14T19:31:35.101Z,13.30
2019-05-14T19:34:03.707Z,13.20
2019-05-14T19:36:31.233Z,13.60
2019-05-14T19:38:58.538Z,13.60
2019-05-14T19:41:27.769Z,13.50
2019-05-14T19:43:54.840Z,13.40
2019-05-14T19:46:22.093Z,13.30
2019-05-14T19:48:49.130Z,13.30
2019-05-14T19:51:18.640Z,13.40
2019-05-14T19:53:45.562Z,13.50
2019-05-14T19:56:12.733Z,13.40
2019-05-14T19:58:39.975Z,13.50
2019-05-14T20:01:09.131Z,13.50
2019-05-14T20:03:36.938Z,13.50
2019-05-14T20:06:04.093Z,13.50
2019-05-14T20:08:31.303Z,13.50
2019-05-14T20:10:59.327Z,13.40
2019-05-14T20:13:28.679Z,13.40
2019-05-14T20:15:55.728Z,13.30
2019-05-14T20:18:22.873Z,13.40
2019-05-14T20:20:50.153Z,13.40
2019-05-14T20:23:18.495Z,13.30
2019-05-14T20:25:48.137Z,13.10
2019-05-14T20:28:15.507Z,12.80
2019-05-14T20:30:42.659Z,12.80
2019-05-14T20:33:09.640Z,12.60
2019-05-14T20:35:36.974Z,12.60
2019-05-14T20:38:03.981Z,12.40
2019-05-14T20:40:31.344Z,12.60
2019-05-14T20:45:28.666Z,12.40
2019-05-14T20:47:55.038Z,12.20
2019-05-14T20:50:22.275Z,12.30
2019-05-14T20:52:49.539Z,12.40
2019-05-14T20:55:18.993Z,12.50
2019-05-14T20:57:46.024Z,12.70
2019-05-14T21:00:15.193Z,12.70
2019-05-14T21:02:42.334Z,12.60
2019-05-14T21:05:13.583Z,12.70
2019-05-14T21:07:39.289Z,12.60
2019-05-14T21:10:08.115Z,12.40
2019-05-14T21:12:35.430Z,12.60
2019-05-14T21:15:05.456Z,12.50
2019-05-14T21:17:32.601Z,12.60
2019-05-14T21:20:00.162Z,12.50
2019-05-14T21:22:29.069Z,12.50
2019-05-14T21:24:56.565Z,12.80
2019-05-14T21:27:37.555Z,12.60
2019-05-14T21:29:53.816Z,12.50
2019-05-14T21:32:21.276Z,12.60
2019-05-14T21:34:49.112Z,12.50
2019-05-14T21:37:18.774Z,12.60
2019-05-14T21:39:46.045Z,12.60
2019-05-14T21:42:13.806Z,12.60
2019-05-14T21:44:41.061Z,12.60
2019-05-14T21:47:08.409Z,12.70
2019-05-14T21:49:35.981Z,12.60
2019-05-14T21:52:03.636Z,12.70
2019-05-14T21:54:31.134Z,12.60
2019-05-14T21:56:58.775Z,12.60
2019-05-14T21:59:28.061Z,12.60
2019-05-14T22:01:55.715Z,12.70
2019-05-14T22:04:23.420Z,12.70
2019-05-14T22:06:50.621Z,12.60
2019-05-14T22:09:17.926Z,12.70
2019-05-14T22:11:45.120Z,12.70
2019-05-14T22:14:12.581Z,12.60
2019-05-14T22:16:40.016Z,12.70
2019-05-14T22:19:08.543Z,12.60
2019-05-14T22:21:41.385Z,12.60
2019-05-14T22:24:05.216Z,12.70
2019-05-14T22:26:32.621Z,12.60
2019-05-14T22:28:59.865Z,12.70
2019-05-14T22:31:28.909Z,12.40
2019-05-14T22:33:58.263Z,12.40
2019-05-14T22:36:25.716Z,12.30
2019-05-14T22:38:52.976Z,12.40
2019-05-14T22:41:20.121Z,12.10
2019-05-14T22:43:48.849Z,12.20
2019-05-14T22:46:18.092Z,12.20
2019-05-14T22:48:45.778Z,12.20
2019-05-14T22:51:13.181Z,12.40
2019-05-14T22:53:40.415Z,12.60
2019-05-14T22:58:41.837Z,12.50
2019-05-14T23:01:14.784Z,12.50
2019-05-14T23:03:39.583Z,12.40
2019-05-14T23:06:08.976Z,12.30
2019-05-14T23:08:38.925Z,12.40
2019-05-14T23:11:05.776Z,12.40
2019-05-14T23:13:33.161Z,12.40
2019-05-14T23:16:00.480Z,12.50
2019-05-14T23:18:28.776Z,12.30
2019-05-14T23:20:58.694Z,12.30
2019-05-14T23:23:25.511Z,12.20
2019-05-14T23:25:58.915Z,12.20
2019-05-14T23:28:41.056Z,12.30
2019-05-14T23:30:58.724Z,12.30
2019-05-14T23:33:28.717Z,12.20
2019-05-14T23:35:55.386Z,12.30
2019-05-14T23:38:23.450Z,12.60
2019-05-14T23:40:50.730Z,12.30
2019-05-14T23:43:18.622Z,12.50
2019-05-14T23:45:46.471Z,12.40
2019-05-14T23:48:13.792Z,12.50
2019-05-14T23:50:41.124Z,12.50
2019-05-14T23:53:09.218Z,12.60
2019-05-14T23:55:38.577Z,12.60
2019-05-14T23:58:08.184Z,12.60
